Time;durP1;ratioP1;P1;durP2;ratioP2;P2;SDS_P1;SDS_P2;PMS_P1;PMS_P2;Temp;Humidity;BMP_temperature;BMP_pressure;BME280_temperature;BME280_humidity;BME280_pressure;Samples;Min_cycle;Max_cycle;Signal;HPM_P1;HPM_P2
2021/07/14 00:01:20;;;;;;;3.85;2.92;;;21.00;70.90;;;20.88;55.50;94472.28;5043767;28;20235;-81
2021/07/14 00:03:47;;;;;;;3.38;3.08;;;21.00;70.80;;;20.86;55.71;94477.09;5034478;28;20192;-81
2021/07/14 00:06:33;;;;;;;5.55;3.15;;;20.90;70.90;;;20.82;55.73;94473.34;5021500;28;20215;-81
2021/07/14 00:09:00;;;;;;;3.80;3.45;;;20.90;71.00;;;20.84;56.44;94483.75;5022382;28;20220;-81
2021/07/14 00:11:29;;;;;;;4.57;3.45;;;21.00;71.30;;;20.80;56.67;94488.81;4998936;28;20223;-81
2021/07/14 00:14:14;;;;;;;4.85;3.42;;;20.90;71.40;;;20.79;56.84;94488.00;5004606;28;20221;-80
2021/07/14 00:22:14;;;;;;;3.10;2.80;;;20.80;71.70;;;20.70;56.62;94516.25;5034176;28;20225;-81
2021/07/14 00:24:41;;;;;;;3.28;2.97;;;20.80;72.50;;;20.68;57.36;94514.88;5034353;28;20306;-81
2021/07/14 00:27:10;;;;;;;3.92;2.70;;;20.70;72.60;;;20.66;57.28;94509.81;5034214;28;20215;-80
2021/07/14 00:29:47;;;;;;;4.68;2.85;;;20.70;71.70;;;20.64;57.48;94496.78;5047086;28;20238;-82
2021/07/14 00:32:14;;;;;;;2.88;2.55;;;20.70;72.00;;;20.61;57.65;94497.28;5000096;28;20701;-81
2021/07/14 00:34:42;;;;;;;2.78;2.58;;;20.70;71.90;;;20.57;57.16;94485.56;5008760;28;20241;-82
2021/07/14 00:37:09;;;;;;;4.43;2.90;;;20.60;71.90;;;20.54;57.94;94485.31;5033046;28;20230;-82
2021/07/14 00:39:37;;;;;;;2.92;2.70;;;20.60;72.10;;;20.55;57.14;94489.56;5033895;28;20234;-82
2021/07/14 00:42:08;;;;;;;3.80;2.65;;;20.60;72.00;;;20.51;57.18;94489.28;5013511;28;20208;-81
2021/07/14 00:44:34;;;;;;;3.03;2.78;;;20.60;72.10;;;20.55;57.37;94505.56;5017247;28;20234;-82
2021/07/14 00:47:03;;;;;;;2.83;2.47;;;20.60;72.10;;;20.58;57.22;94529.00;5034240;28;20211;-81
2021/07/14 00:49:30;;;;;;;3.42;2.65;;;20.50;72.10;;;20.60;57.25;94554.34;5009675;28;20230;-81
2021/07/14 00:51:57;;;;;;;3.75;2.60;;;20.60;72.30;;;20.67;57.34;94582.59;5033748;28;20793;-80
2021/07/14 00:54:24;;;;;;;4.13;2.80;;;20.60;72.30;;;20.69;57.25;94591.91;5033611;28;20310;-80
2021/07/14 00:56:51;;;;;;;4.72;2.90;;;20.60;72.30;;;20.72;56.92;94596.72;5036671;28;20405;-81
2021/07/14 00:59:18;;;;;;;3.53;3.10;;;20.60;72.30;;;20.73;57.36;94578.91;5034504;28;20226;-81
2021/07/14 01:01:46;;;;;;;4.63;2.75;;;20.60;72.40;;;20.75;57.42;94568.75;5034444;28;20288;-81
2021/07/14 01:04:26;;;;;;;2.70;2.40;;;20.60;72.40;;;20.72;57.27;94554.09;5033791;28;20235;-81
2021/07/14 01:07:04;;;;;;;2.67;2.47;;;20.60;72.50;;;20.73;57.26;94513.06;5049912;28;20194;-81
2021/07/14 01:09:40;;;;;;;4.07;2.58;;;20.60;72.60;;;20.73;57.69;94482.97;5032918;28;20234;-81
2021/07/14 01:12:16;;;;;;;2.72;2.53;;;20.60;72.70;;;20.75;57.57;94454.97;5029841;28;20214;-81
2021/07/14 01:15:12;;;;;;;2.92;2.20;;;20.70;72.80;;;20.76;57.04;94442.44;5033550;28;20597;-79
2021/07/14 01:17:52;;;;;;;3.13;2.30;;;20.70;72.60;;;20.79;56.82;94431.25;5033938;28;20583;-81
2021/07/14 01:20:29;;;;;;;3.58;2.30;;;20.70;72.60;;;20.81;57.10;94406.97;5029827;28;20674;-81
2021/07/14 01:23:11;;;;;;;2.75;2.40;;;20.70;72.70;;;20.82;57.19;94373.94;5024642;28;20309;-82
2021/07/14 01:25:53;;;;;;;4.70;2.90;;;20.70;72.60;;;20.82;56.82;94371.28;5032724;28;20233;-82
2021/07/14 01:28:25;;;;;;;3.78;2.45;;;20.80;72.60;;;20.83;56.50;94363.00;5017101;28;20711;-82
2021/07/14 01:30:53;;;;;;;4.43;2.30;;;20.70;72.60;;;20.85;56.66;94363.53;5033853;28;20234;-81
2021/07/14 01:33:24;;;;;;;2.45;2.15;;;20.70;72.30;;;20.86;56.49;94372.31;5017085;28;20302;-81
2021/07/14 01:35:53;;;;;;;2.92;2.20;;;20.70;72.50;;;20.84;56.85;94383.25;5049526;28;20230;-81
2021/07/14 01:38:24;;;;;;;2.42;2.20;;;20.70;72.30;;;20.81;56.60;94383.78;5046002;28;20199;-82
2021/07/14 01:40:56;;;;;;;2.97;2.35;;;20.70;72.30;;;20.75;56.57;94375.00;5013786;28;20240;-82
2021/07/14 01:43:24;;;;;;;3.22;2.60;;;20.70;72.30;;;20.72;57.09;94374.75;4981217;28;20215;-81
2021/07/14 01:45:53;;;;;;;4.80;2.45;;;20.70;72.30;;;20.68;56.46;94381.63;5021162;28;20223;-81
2021/07/14 01:48:22;;;;;;;2.42;2.22;;;20.70;72.20;;;20.62;56.89;94356.88;5049132;28;20215;-80
2021/07/14 01:50:50;;;;;;;2.78;2.58;;;20.60;72.20;;;20.56;56.55;94342.75;5033593;28;20298;-82
2021/07/14 01:53:20;;;;;;;2.63;2.40;;;20.60;72.20;;;20.49;57.09;94347.56;5049910;28;20207;-81
2021/07/14 01:55:48;;;;;;;2.80;2.55;;;20.60;72.40;;;20.45;56.81;94359.84;5036546;28;20317;-81
2021/07/14 01:58:17;;;;;;;3.28;2.60;;;20.50;72.20;;;20.42;57.14;94369.16;5048684;28;20738;-82
2021/07/14 02:00:47;;;;;;;2.75;2.40;;;20.50;72.30;;;20.41;57.66;94388.88;5034662;28;20235;-82
2021/07/14 02:06:03;;;;;;;2.95;2.60;;;20.40;72.60;;;20.39;57.82;94395.53;5053165;28;20681;-82
2021/07/14 02:08:31;;;;;;;4.95;2.50;;;20.40;72.70;;;20.40;57.41;94402.47;5035905;28;20617;-81
2021/07/14 02:10:59;;;;;;;3.15;2.50;;;20.40;72.70;;;20.40;57.50;94389.94;5038360;28;20219;-81
2021/07/14 02:13:29;;;;;;;3.25;2.53;;;20.40;72.80;;;20.40;58.05;94397.91;5036640;28;20586;-81
2021/07/14 02:16:00;;;;;;;3.00;2.70;;;20.40;73.00;;;20.43;58.13;94391.25;5032419;28;20227;-80
2021/07/14 02:18:40;;;;;;;2.45;2.22;;;20.40;73.10;;;20.44;57.73;94401.63;5000680;28;20616;-82
2021/07/14 02:21:06;;;;;;;2.47;2.28;;;20.40;73.00;;;20.45;57.74;94427.22;5016553;28;20227;-82
2021/07/14 02:23:36;;;;;;;3.00;2.70;;;20.40;73.00;;;20.46;58.35;94426.16;5034234;28;20653;-81
2021/07/14 02:26:04;;;;;;;5.15;2.60;;;20.40;73.20;;;20.45;58.32;94413.09;5036656;28;20227;-80
2021/07/14 02:28:31;;;;;;;2.95;2.65;;;20.50;73.50;;;20.43;59.22;94426.69;5046736;28;20293;-81
2021/07/14 02:30:58;;;;;;;4.35;3.13;;;20.40;73.40;;;20.39;59.16;94384.88;5036203;28;20222;-81
2021/07/14 02:33:25;;;;;;;2.90;2.60;;;20.40;73.50;;;;;;5016431;28;20223;-80
2021/07/14 02:35:58;;;;;;;2.90;2.70;;;20.40;73.80;;;20.31;59.74;94372.88;5004052;28;20255;-81
2021/07/14 02:38:43;;;;;;;3.88;3.10;;;20.40;73.90;;;20.25;59.85;94384.59;5000370;28;20218;-81
2021/07/14 02:41:26;;;;;;;3.33;3.03;;;20.40;74.00;;;20.20;59.82;94411.22;4983626;28;20366;-81
2021/07/14 02:44:04;;;;;;;2.95;2.65;;;20.30;74.10;;;20.20;59.36;94461.81;5000312;28;20246;-80
2021/07/14 02:46:36;;;;;;;5.07;2.60;;;20.30;74.40;;;20.14;60.10;94458.31;5017768;28;20689;-79
2021/07/14 02:49:08;;;;;;;4.80;2.78;;;20.30;74.70;;;20.05;61.18;94531.78;5018962;28;20219;-81
2021/07/14 02:51:36;;;;;;;3.28;2.60;;;20.30;75.60;;;19.89;61.47;94677.31;5008589;28;20215;-80
2021/07/14 02:54:12;;;;;;;5.45;3.03;;;20.20;75.60;;;19.76;61.47;94708.63;5045335;28;20516;-81
2021/07/14 02:56:40;;;;;;;3.53;2.97;;;20.10;75.80;;;19.63;62.41;94696.53;5033245;28;20211;-80
2021/07/14 02:59:09;;;;;;;7.20;2.80;;;20.00;76.00;;;19.58;62.09;94656.59;5030931;28;20311;-82
2021/07/14 03:01:42;;;;;;;4.10;2.63;;;19.90;76.00;;;19.49;61.64;94634.97;5040288;28;20768;-81
2021/07/14 03:04:11;;;;;;;3.45;2.50;;;19.80;76.50;;;19.48;61.65;94590.00;5028391;28;20683;-81
2021/07/14 03:06:39;;;;;;;3.80;2.80;;;19.70;76.00;;;19.38;62.43;94550.84;5004203;28;20362;-81
2021/07/14 03:09:08;;;;;;;5.07;2.72;;;19.70;76.30;;;19.34;62.82;94502.69;5041477;28;20235;-83
2021/07/14 03:11:39;;;;;;;3.17;2.63;;;19.60;76.60;;;19.29;62.52;94480.59;5008679;28;20207;-83
2021/07/14 03:14:11;;;;;;;3.90;2.80;;;19.60;76.80;;;19.24;62.42;94515.94;5032538;28;20254;-83
2021/07/14 03:16:40;;;;;;;4.47;2.63;;;19.50;77.10;;;19.20;63.34;94510.31;5043680;28;20585;-82
2021/07/14 03:19:10;;;;;;;5.18;2.80;;;19.50;77.00;;;19.23;63.00;94505.56;5018518;28;20323;-82
2021/07/14 03:21:38;;;;;;;3.17;2.53;;;19.40;77.20;;;19.20;62.46;94509.53;5052081;28;20559;-82
2021/07/14 03:24:07;;;;;;;4.35;2.33;;;19.40;77.30;;;19.26;62.47;94507.69;5051815;28;20249;-82
2021/07/14 03:26:36;;;;;;;2.78;2.10;;;19.40;77.70;;;19.29;62.63;94512.50;5052286;28;20219;-82
2021/07/14 03:29:04;;;;;;;3.42;2.38;;;19.40;77.70;;;19.31;62.51;94511.19;5034695;28;20302;-81
2021/07/14 03:31:32;;;;;;;4.15;2.50;;;19.40;77.80;;;19.40;62.85;94511.50;5019171;28;20223;-82
2021/07/14 03:33:59;;;;;;;3.92;2.40;;;19.40;78.00;;;19.46;62.40;94507.03;5036334;28;20246;-82
2021/07/14 03:36:27;;;;;;;4.43;2.58;;;19.40;78.10;;;19.47;62.43;94493.47;5019018;28;20227;-82
2021/07/14 03:38:55;;;;;;;3.13;2.33;;;19.50;78.20;;;19.51;62.25;94480.44;5018407;28;20215;-83
2021/07/14 03:41:23;;;;;;;3.00;2.50;;;19.40;77.90;;;19.49;62.33;94498.50;5034605;28;20242;-83
2021/07/14 03:43:53;;;;;;;3.42;2.53;;;19.50;77.80;;;19.41;62.61;94520.28;4998812;28;20342;-83
2021/07/14 03:46:20;;;;;;;4.05;2.92;;;19.50;77.80;;;19.39;63.14;94509.91;5033003;28;20218;-84
2021/07/14 03:48:49;;;;;;;3.15;2.60;;;19.50;77.80;;;19.34;63.17;94504.56;5035349;28;20689;-85
2021/07/14 03:51:17;;;;;;;3.90;2.55;;;19.50;77.90;;;19.34;63.08;94518.63;5035766;28;20646;-83
2021/07/14 03:53:48;;;;;;;2.65;2.40;;;19.40;78.10;;;19.33;63.02;94524.22;5046942;28;20212;-83
2021/07/14 03:56:15;;;;;;;3.40;2.50;;;19.40;77.90;;;19.36;62.93;94513.09;5035799;28;20215;-84
2021/07/14 03:58:46;;;;;;;2.92;2.60;;;19.40;78.10;;;19.39;62.99;94485.19;5034189;28;20211;-82
2021/07/14 04:01:13;;;;;;;3.38;2.60;;;19.40;78.30;;;19.41;62.86;94493.66;5015572;28;20227;-83
2021/07/14 04:03:41;;;;;;;4.43;2.90;;;19.40;78.20;;;19.42;62.76;94484.63;5013949;28;20661;-84
2021/07/14 04:06:08;;;;;;;4.43;2.70;;;19.40;78.30;;;19.42;62.50;94471.34;5007067;28;20231;-82
2021/07/14 04:08:44;;;;;;;3.00;2.70;;;19.40;78.20;;;19.47;63.19;94498.78;5018665;28;20281;-83
2021/07/14 04:11:13;;;;;;;4.47;2.60;;;19.40;78.90;;;19.52;62.78;94514.75;5051784;28;20225;-83
2021/07/14 04:13:41;;;;;;;2.80;2.60;;;19.40;78.60;;;19.56;62.79;94517.72;5051397;28;20649;-84
2021/07/14 04:16:08;;;;;;;3.33;2.65;;;19.50;78.50;;;19.58;62.89;94512.94;5046008;28;20751;-83
2021/07/14 04:18:34;;;;;;;3.33;2.90;;;19.50;78.60;;;19.65;62.99;94531.31;5014495;28;20208;-83
2021/07/14 04:21:02;;;;;;;3.80;2.30;;;19.50;78.60;;;19.69;63.03;94532.41;4989893;28;20235;-84
2021/07/14 04:23:28;;;;;;;3.20;2.90;;;19.60;78.80;;;19.73;62.91;94512.19;5015283;28;20692;-84
2021/07/14 04:25:57;;;;;;;4.53;3.20;;;19.60;78.70;;;19.76;62.85;94532.16;4999329;28;20235;-83
2021/07/14 04:28:24;;;;;;;3.50;3.20;;;19.60;78.60;;;19.79;62.64;94529.78;5011726;28;20734;-83
2021/07/14 04:30:51;;;;;;;4.55;2.85;;;19.70;78.80;;;19.82;62.51;94544.44;5034565;28;20254;-83
2021/07/14 04:33:18;;;;;;;2.70;2.50;;;19.70;78.80;;;19.85;62.70;94562.59;5030849;28;20313;-83
2021/07/14 04:35:46;;;;;;;4.15;2.63;;;19.70;78.80;;;19.91;62.47;94526.13;5024956;28;20243;-82
2021/07/14 04:38:13;;;;;;;3.72;2.97;;;19.80;78.80;;;19.90;62.75;94487.28;5034685;28;20245;-82
2021/07/14 04:40:40;;;;;;;3.97;2.70;;;19.80;78.70;;;19.95;62.81;94464.13;5034647;28;20219;-84
2021/07/14 04:43:06;;;;;;;3.53;2.65;;;19.80;78.60;;;19.95;62.55;94458.03;5030740;28;20235;-84
2021/07/14 04:45:33;;;;;;;3.60;2.80;;;19.80;78.70;;;19.99;62.95;94469.75;5017271;28;20227;-83
2021/07/14 04:48:02;;;;;;;3.78;2.47;;;19.90;78.80;;;20.02;62.81;94457.75;5018209;28;20297;-84
2021/07/14 04:50:30;;;;;;;3.78;2.58;;;19.90;78.70;;;20.01;62.91;94462.31;5025603;28;20688;-84
2021/07/14 04:52:56;;;;;;;2.92;2.60;;;19.90;78.70;;;20.05;62.60;94455.38;5034981;28;20233;-84
2021/07/14 04:55:24;;;;;;;3.17;2.88;;;20.00;78.60;;;20.04;62.80;94474.28;5051000;28;20227;-84
2021/07/14 04:57:51;;;;;;;2.95;2.58;;;19.90;78.50;;;20.07;62.50;94511.84;5047760;28;20208;-84
2021/07/14 05:00:18;;;;;;;3.47;2.67;;;19.90;78.40;;;20.08;62.88;94542.72;5026416;28;20345;-85
2021/07/14 05:02:45;;;;;;;4.30;2.72;;;20.00;78.60;;;20.09;63.15;94547.00;5034429;28;20681;-83
2021/07/14 05:05:14;;;;;;;3.92;2.80;;;20.00;78.60;;;20.10;62.86;94499.88;5014714;28;20285;-85
2021/07/14 05:07:41;;;;;;;4.03;2.80;;;20.00;78.80;;;20.13;62.77;94496.69;5027153;28;20574;-85
2021/07/14 05:10:09;;;;;;;3.47;2.75;;;20.00;78.60;;;20.13;62.97;94484.16;5034224;28;20238;-85
2021/07/14 05:12:37;;;;;;;4.03;2.38;;;20.10;78.70;;;20.13;62.98;94497.47;5034519;28;20227;-84
2021/07/14 05:15:04;;;;;;;5.15;2.70;;;20.10;78.60;;;20.16;62.99;94501.47;5051205;28;20251;-84
2021/07/14 05:17:31;;;;;;;3.08;2.53;;;20.10;78.70;;;20.19;62.84;94503.63;5036798;28;20219;-84
2021/07/14 05:19:58;;;;;;;2.67;2.47;;;20.10;78.60;;;20.21;62.31;94512.13;5038587;28;20231;-81
2021/07/14 05:22:26;;;;;;;2.78;2.47;;;20.10;78.50;;;20.24;62.40;94519.59;5034128;28;20289;-82
2021/07/14 05:24:52;;;;;;;4.10;2.88;;;20.10;78.50;;;20.24;62.49;94498.31;5017600;28;20287;-83
2021/07/14 05:27:19;;;;;;;3.63;2.60;;;20.20;78.50;;;20.27;62.38;94494.31;5032800;28;20572;-82
2021/07/14 05:29:46;;;;;;;3.42;2.67;;;20.20;78.40;;;20.25;62.27;94448.50;5049832;28;20349;-83
2021/07/14 05:32:12;;;;;;;3.05;2.50;;;20.10;78.30;;;20.29;62.57;94431.72;5019506;28;20248;-83
2021/07/14 05:34:39;;;;;;;2.88;2.58;;;20.20;78.30;;;20.30;62.45;94422.69;5012426;28;20235;-83
2021/07/14 05:37:06;;;;;;;2.40;2.20;;;20.20;78.40;;;20.31;62.12;94413.63;5015443;28;20216;-82
2021/07/14 05:39:33;;;;;;;2.78;2.55;;;20.20;78.40;;;20.33;62.35;94413.34;4997715;28;20228;-83
2021/07/14 05:41:59;;;;;;;3.08;2.63;;;20.20;78.50;;;20.38;62.29;94407.25;5014963;28;20685;-82
2021/07/14 05:44:26;;;;;;;2.83;2.45;;;20.20;78.60;;;20.37;62.39;94371.78;5033429;28;20226;-83
2021/07/14 05:46:53;;;;;;;3.03;2.70;;;20.30;78.50;;;20.42;62.59;94379.81;5016268;28;20239;-83
2021/07/14 05:49:20;;;;;;;3.10;2.80;;;20.30;78.50;;;20.42;62.33;94403.78;5033859;28;20280;-82
2021/07/14 05:51:48;;;;;;;3.67;2.78;;;20.30;78.60;;;20.43;62.89;94429.38;5050138;28;20225;-82
2021/07/14 05:54:15;;;;;;;3.05;2.75;;;20.30;78.50;;;20.44;62.62;94462.91;5016887;28;20234;-82
2021/07/14 05:56:42;;;;;;;4.53;3.53;;;20.40;78.60;;;20.45;62.77;94464.50;5017177;28;20213;-82
2021/07/14 05:59:08;;;;;;;4.10;3.13;;;20.30;78.50;;;20.46;62.48;94466.13;5032075;28;20369;-81
2021/07/14 06:01:37;;;;;;;3.85;3.10;;;20.40;78.50;;;20.46;62.36;94460.00;5031711;28;20681;-83
2021/07/14 06:04:04;;;;;;;3.40;3.10;;;20.30;78.50;;;20.45;62.79;94479.69;5014126;28;20319;-82
2021/07/14 06:06:32;;;;;;;3.67;2.70;;;20.40;78.60;;;20.49;62.77;94486.09;5021999;28;20266;-82
2021/07/14 06:08:59;;;;;;;5.55;2.85;;;20.40;78.50;;;20.42;62.28;94449.06;5033582;28;20273;-82
2021/07/14 06:11:26;;;;;;;4.78;2.88;;;20.40;78.50;;;20.44;62.93;94464.78;5033964;28;20215;-81
2021/07/14 06:13:53;;;;;;;4.82;2.80;;;20.40;78.60;;;20.45;62.97;94429.09;5033490;28;20225;-82
2021/07/14 06:16:20;;;;;;;4.72;3.17;;;20.40;78.50;;;20.44;62.90;94403.50;5030012;28;20212;-83
2021/07/14 06:18:47;;;;;;;2.95;2.42;;;20.40;78.60;;;20.44;62.57;94376.88;5013734;28;20220;-84
2021/07/14 06:21:13;;;;;;;2.50;2.30;;;20.40;78.60;;;20.51;62.91;94357.94;5009597;28;20318;-84
2021/07/14 06:23:40;;;;;;;3.10;2.70;;;20.40;78.70;;;20.51;62.86;94318.78;4996919;28;20219;-84
2021/07/14 06:26:07;;;;;;;4.05;3.00;;;20.40;78.80;;;20.55;63.17;94348.38;5041219;28;20234;-84
2021/07/14 06:28:34;;;;;;;5.18;3.33;;;20.40;78.80;;;20.53;62.56;94353.16;5030764;28;20215;-84
2021/07/14 06:31:03;;;;;;;4.13;2.72;;;20.40;78.70;;;20.49;62.65;94350.22;5034260;28;20219;-85
2021/07/14 06:33:31;;;;;;;2.83;2.63;;;20.40;78.70;;;20.47;62.70;94363.81;5002500;28;20588;-84
2021/07/14 06:35:58;;;;;;;3.47;3.00;;;20.40;78.80;;;20.45;62.78;94403.25;4997579;28;20239;-85
2021/07/14 06:38:25;;;;;;;5.53;3.05;;;20.40;78.80;;;20.49;62.95;94414.16;5031260;28;20223;-84
2021/07/14 06:40:52;;;;;;;3.17;2.88;;;20.40;78.80;;;20.51;62.83;94411.22;5040637;28;20227;-83
2021/07/14 06:43:19;;;;;;;3.55;2.47;;;20.40;78.80;;;20.51;63.15;94387.25;5029413;28;20807;-83
2021/07/14 06:45:47;;;;;;;4.93;2.78;;;20.40;78.80;;;20.47;63.17;94392.34;5030356;28;20489;-82
2021/07/14 06:48:16;;;;;;;2.67;2.45;;;20.40;78.70;;;20.48;63.07;94386.72;5034297;28;20243;-83
2021/07/14 06:50:42;;;;;;;3.20;2.90;;;20.40;78.70;;;20.43;62.81;94316.66;5050697;28;20306;-83
2021/07/14 06:53:10;;;;;;;2.90;2.60;;;20.40;78.60;;;20.38;62.95;94327.34;5012954;28;20246;-83
2021/07/14 06:55:37;;;;;;;4.20;2.53;;;20.40;78.60;;;20.33;62.87;94416.03;5026304;28;20219;-83
2021/07/14 06:58:03;;;;;;;3.00;2.70;;;20.30;78.60;;;20.31;63.16;94445.59;5033250;28;20203;-84
2021/07/14 07:00:34;;;;;;;3.30;2.95;;;20.30;78.70;;;20.30;62.94;94448.53;4992335;28;20697;-83
2021/07/14 07:03:02;;;;;;;4.32;3.00;;;20.30;78.90;;;20.31;63.25;94445.59;5021970;28;20216;-85
2021/07/14 07:05:28;;;;;;;4.57;3.38;;;20.30;78.90;;;20.33;63.56;94407.25;5027887;28;20310;-84
2021/07/14 07:07:57;;;;;;;4.20;2.80;;;20.30;79.00;;;;;;5000514;28;20226;-83
2021/07/14 07:10:24;;;;;;;4.15;3.00;;;20.20;78.90;;;20.29;63.61;94257.84;5047894;28;20280;-83
2021/07/14 07:12:51;;;;;;;3.28;2.75;;;20.30;79.00;;;20.30;63.44;94281.53;5009846;28;20236;-84
2021/07/14 07:15:18;;;;;;;3.05;2.75;;;20.30;79.10;;;20.36;63.26;94396.88;5017144;28;20234;-85
2021/07/14 07:17:45;;;;;;;5.78;2.97;;;20.30;79.10;;;20.45;63.38;94419.22;5028295;28;20262;-84
2021/07/14 07:20:14;;;;;;;4.05;2.63;;;20.30;79.30;;;20.56;63.61;94433.34;5022491;28;20729;-85
2021/07/14 07:22:43;;;;;;;4.35;3.10;;;20.40;79.70;;;20.70;63.15;94428.28;5020670;28;20191;-86
2021/07/14 07:25:12;;;;;;;2.88;2.58;;;20.40;79.70;;;20.84;63.22;94427.78;5041469;28;20279;-86
2021/07/14 07:27:40;;;;;;;2.88;2.35;;;20.50;80.00;;;20.98;63.25;94444.03;5005764;28;20215;-85
2021/07/14 07:30:10;;;;;;;4.00;2.30;;;20.60;80.10;;;21.14;63.32;94447.44;5006585;28;20232;-85
2021/07/14 07:32:37;;;;;;;2.85;2.40;;;20.70;80.10;;;21.25;62.96;94369.00;5009707;28;20647;-84
2021/07/14 07:35:06;;;;;;;3.15;2.85;;;20.80;79.80;;;21.31;62.69;94279.88;5024486;28;20228;-85
2021/07/14 07:37:32;;;;;;;3.90;2.47;;;20.90;79.60;;;21.34;62.48;94323.91;5029842;28;20216;-85
2021/07/14 07:39:59;;;;;;;4.45;2.90;;;21.00;79.50;;;21.38;62.38;94396.97;5007749;28;20238;-85
2021/07/14 07:42:26;;;;;;;4.35;2.63;;;21.10;79.40;;;21.43;62.62;94379.09;5023854;28;20582;-86
2021/07/14 07:44:52;;;;;;;3.72;2.65;;;21.10;79.20;;;21.50;62.91;94376.13;5022641;28;20756;-86
2021/07/14 07:47:19;;;;;;;5.10;2.53;;;21.20;79.40;;;21.56;62.76;94332.34;5039312;28;20643;-84
2021/07/14 07:49:46;;;;;;;3.15;2.17;;;21.20;79.30;;;21.74;62.46;94274.88;5030881;28;20207;-85
2021/07/14 07:52:27;;;;;;;2.53;2.10;;;21.40;79.50;;;21.90;62.58;94330.84;5008339;28;20223;-86
2021/07/14 07:54:55;;;;;;;3.22;2.10;;;21.40;79.50;;;22.06;62.52;94361.69;5041801;28;20263;-86
2021/07/14 07:57:24;;;;;;;2.50;2.20;;;21.50;79.50;;;22.24;62.49;94343.41;5046203;28;20255;-86
2021/07/14 07:59:52;;;;;;;3.42;2.20;;;21.70;79.60;;;22.49;61.87;94354.97;5032902;28;20225;-88
2021/07/14 08:02:19;;;;;;;3.50;2.10;;;21.80;79.70;;;22.67;61.97;94358.84;5014916;28;20221;-88
2021/07/14 08:04:46;;;;;;;3.38;2.47;;;22.00;79.70;;;22.83;61.58;94362.94;5031281;28;20240;-88
2021/07/14 08:07:12;;;;;;;3.10;2.30;;;22.10;79.30;;;22.95;61.14;94375.94;5000310;28;20222;-88
2021/07/14 08:09:39;;;;;;;2.28;1.92;;;22.30;79.30;;;23.11;61.01;94384.59;5032780;28;20236;-88
2021/07/14 08:12:06;;;;;;;6.38;2.40;;;22.40;78.90;;;23.23;60.92;94388.78;5030917;28;20215;-86
2021/07/14 08:14:32;;;;;;;3.75;2.20;;;22.50;78.70;;;23.29;60.97;94388.44;5016974;28;20766;-85
2021/07/14 08:16:59;;;;;;;2.85;2.15;;;22.70;78.80;;;23.39;60.71;94371.47;5035661;28;20254;-86
2021/07/14 08:19:26;;;;;;;4.93;2.30;;;22.80;78.70;;;23.49;60.56;94341.09;5052147;28;20234;-86
2021/07/14 08:21:53;;;;;;;3.42;2.53;;;22.90;78.50;;;23.60;60.81;94377.34;5032243;28;20223;-86
2021/07/14 08:24:21;;;;;;;2.67;2.00;;;23.00;78.50;;;23.77;60.69;94355.44;5001294;28;20228;-87
2021/07/14 08:26:47;;;;;;;2.25;1.90;;;23.10;78.70;;;23.90;60.26;94410.19;5014734;28;20231;-87
2021/07/14 08:29:34;;;;;;;2.47;2.10;;;23.20;78.40;;;24.02;60.50;94388.34;5052696;28;20223;-86
2021/07/14 08:32:01;;;;;;;4.45;2.03;;;23.30;78.20;;;24.12;59.91;94365.97;5015860;28;20223;-87
2021/07/14 08:34:27;;;;;;;2.40;1.85;;;23.50;78.10;;;24.24;59.81;94346.75;5010021;28;20243;-86
2021/07/14 08:36:54;;;;;;;3.70;1.88;;;23.60;77.70;;;24.32;59.66;94345.31;5002911;28;20224;-87
2021/07/14 08:39:21;;;;;;;4.10;2.20;;;23.70;77.50;;;24.39;59.01;94338.50;5042518;28;20332;-87
2021/07/14 08:41:49;;;;;;;2.42;2.15;;;23.80;77.40;;;24.53;59.44;94333.16;5031292;28;20310;-87
2021/07/14 08:44:17;;;;;;;3.10;1.88;;;23.90;77.40;;;24.60;58.98;94322.06;5038067;28;20211;-86
2021/07/14 08:46:44;;;;;;;3.05;2.10;;;24.00;77.30;;;24.69;59.10;94316.84;5015518;28;20219;-86
2021/07/14 08:49:13;;;;;;;2.35;2.13;;;24.10;77.20;;;24.78;58.86;94329.25;5017664;28;20230;-87
2021/07/14 08:51:44;;;;;;;4.65;2.03;;;24.10;77.00;;;24.93;58.43;94343.50;5042178;28;20226;-87
2021/07/14 08:54:14;;;;;;;2.88;1.88;;;24.20;76.00;;;25.02;58.20;94339.00;5033828;28;20229;-87
2021/07/14 08:56:41;;;;;;;4.55;1.90;;;24.30;76.50;;;25.09;57.96;94344.00;5012721;28;20266;-88
2021/07/14 08:59:09;;;;;;;2.05;1.63;;;24.40;75.80;;;25.11;57.57;94344.50;5015661;28;20308;-86
2021/07/14 09:01:36;;;;;;;3.35;1.98;;;24.50;76.20;;;25.07;57.41;94333.56;5008372;28;20301;-86
2021/07/14 09:04:04;;;;;;;2.72;1.83;;;24.50;75.80;;;25.03;57.65;94339.81;5031006;28;20649;-87
2021/07/14 09:06:31;;;;;;;3.38;2.00;;;24.50;75.40;;;24.93;57.36;94343.50;4999576;28;20212;-87
2021/07/14 09:08:58;;;;;;;4.07;1.95;;;24.50;75.10;;;24.86;57.14;94343.09;5015756;28;20219;-88
2021/07/14 09:11:25;;;;;;;2.97;2.00;;;24.50;75.00;;;24.79;57.25;94351.50;5032418;28;20226;-86
2021/07/14 09:13:51;;;;;;;3.75;2.10;;;24.40;74.80;;;24.69;57.07;94352.47;5034876;28;20223;-86
2021/07/14 09:16:35;;;;;;;3.05;1.67;;;24.40;74.60;;;24.67;57.41;94361.91;5035299;28;20668;-87
2021/07/14 09:19:13;;;;;;;2.88;1.95;;;24.40;74.80;;;24.62;57.45;94363.56;5051632;28;20273;-86
2021/07/14 09:21:43;;;;;;;2.45;1.80;;;24.30;74.60;;;24.68;57.89;94384.97;5050344;28;20296;-88
2021/07/14 09:24:32;;;;;;;3.92;2.25;;;24.30;75.20;;;24.76;57.56;94387.75;5035084;28;20243;-87
2021/07/14 09:27:03;;;;;;;5.03;2.50;;;24.30;75.00;;;24.96;57.61;94390.38;5051688;28;20614;-86
2021/07/14 09:29:30;;;;;;;3.10;2.10;;;24.40;75.50;;;25.18;57.72;94395.91;5008244;28;20234;-86
2021/07/14 09:31:57;;;;;;;4.18;2.28;;;24.50;76.20;;;25.38;57.44;94394.72;5015260;28;20222;-86
2021/07/14 09:34:30;;;;;;;3.22;1.80;;;24.60;76.70;;;25.57;56.90;94391.13;4998864;28;20271;-87
2021/07/14 09:37:03;;;;;;;3.80;2.00;;;24.80;75.50;;;25.70;56.44;94387.63;4998540;28;20224;-87
2021/07/14 09:39:36;;;;;;;3.70;2.47;;;24.90;75.00;;;25.81;56.33;94390.13;5010146;28;20219;-87
2021/07/14 09:42:12;;;;;;;5.70;2.17;;;25.10;74.80;;;25.94;56.76;94388.47;5034528;28;20747;-87
2021/07/14 09:44:47;;;;;;;3.55;2.25;;;25.20;75.30;;;26.24;57.12;94397.78;5034726;28;20258;-87
2021/07/14 09:47:20;;;;;;;3.80;2.40;;;25.40;75.50;;;26.55;56.50;94405.16;5034306;28;20225;-87
2021/07/14 09:49:49;;;;;;;3.15;2.40;;;25.60;75.40;;;26.85;55.95;94400.13;5051274;28;20221;-87
2021/07/14 09:52:21;;;;;;;3.15;2.13;;;25.80;75.30;;;27.03;54.53;94403.72;5017879;28;20569;-87
2021/07/14 09:54:49;;;;;;;3.30;2.30;;;26.00;73.50;;;27.14;54.34;94409.66;5034485;28;20314;-87
2021/07/14 09:57:18;;;;;;;3.95;2.35;;;26.10;73.50;;;27.20;53.34;94410.31;5034326;28;20226;-87
2021/07/14 09:59:46;;;;;;;6.65;2.47;;;26.30;72.50;;;27.24;53.83;94409.38;5034261;28;20323;-87
2021/07/14 10:02:15;;;;;;;3.53;2.17;;;26.40;72.90;;;27.28;53.61;94413.03;5021767;28;20221;-87
2021/07/14 10:04:46;;;;;;;3.38;2.25;;;26.50;72.20;;;27.44;53.53;94418.84;5017670;28;20252;-88
2021/07/14 10:07:15;;;;;;;5.70;2.60;;;26.60;72.30;;;27.56;53.32;94414.75;5023994;28;20223;-86
2021/07/14 10:09:44;;;;;;;5.53;2.55;;;26.70;72.10;;;27.66;52.72;94416.34;5033448;28;20652;-87
2021/07/14 10:12:27;;;;;;;3.00;2.03;;;26.80;71.60;;;27.81;52.64;94418.63;5017358;28;20773;-87
2021/07/14 10:14:56;;;;;;;4.57;2.15;;;26.90;71.50;;;27.89;52.37;94433.22;5033037;28;20341;-87
2021/07/14 10:17:40;;;;;;;3.92;2.20;;;27.10;71.40;;;28.03;52.53;94430.41;5035152;28;20254;-87
2021/07/14 10:20:22;;;;;;;3.63;2.03;;;27.20;71.30;;;28.12;52.34;94431.22;5001836;28;20237;-84
2021/07/14 10:22:55;;;;;;;5.45;2.17;;;27.30;71.30;;;28.16;51.98;94434.09;5043823;28;20291;-87
2021/07/14 10:25:24;;;;;;;2.95;1.98;;;27.40;70.80;;;28.23;51.92;94439.81;5025806;28;20222;-87
2021/07/14 10:27:53;;;;;;;3.92;2.20;;;27.50;70.70;;;28.23;52.22;94437.09;5036230;28;20726;-87
2021/07/14 10:30:21;;;;;;;4.53;2.40;;;27.50;70.50;;;28.23;51.17;94445.19;5040191;28;20775;-86
2021/07/14 10:32:49;;;;;;;4.10;2.50;;;27.60;70.00;;;28.15;51.03;94448.66;5047168;28;20664;-86
2021/07/14 10:35:22;;;;;;;5.18;2.13;;;27.60;69.70;;;28.08;51.44;94439.16;5037072;28;20239;-85
2021/07/14 10:38:38;;;;;;;5.35;2.30;;;27.60;69.60;;;27.96;52.13;94450.53;5035604;28;20223;-85